Time;durP1;ratioP1;P1;durP2;ratioP2;P2;SDS_P1;SDS_P2;PMS_P1;PMS_P2;Temp;Humidity;BMP_temperature;BMP_pressure;BME280_temperature;BME280_humidity;BME280_pressure;Samples;Min_cycle;Max_cycle;Signal;HPM_P1;HPM_P2
2021/09/24 00:02:23;;;;;;;4.85;1.75;;;;;;;27.41;34.06;96902.22;5034728;28;20045;-27
2021/09/24 00:04:49;;;;;;;6.72;1.83;;;;;;;27.41;34.05;96896.97;5037586;28;20028;-29
2021/09/24 00:07:14;;;;;;;4.40;2.10;;;;;;;27.41;34.26;96902.22;5032045;28;20079;-29
2021/09/24 00:09:40;;;;;;;2.00;1.80;;;;;;;27.39;34.12;96900.50;5035655;28;20530;-27
2021/09/24 00:12:05;;;;;;;3.10;2.00;;;;;;;27.41;33.98;96902.22;5039081;28;20075;-31
2021/09/24 00:14:31;;;;;;;4.75;2.30;;;;;;;27.39;34.02;96900.50;5034520;28;20036;-32
2021/09/24 00:16:56;;;;;;;4.57;1.85;;;;;;;27.39;33.97;96905.78;5034084;28;20044;-29
2021/09/24 00:19:21;;;;;;;3.22;1.50;;;;;;;27.39;34.05;96905.78;5037593;28;20022;-30
2021/09/24 00:21:47;;;;;;;2.53;1.77;;;;;;;27.38;33.96;96906.72;5033626;28;20491;-28
2021/09/24 00:24:12;;;;;;;3.70;1.70;;;;;;;27.39;34.01;96905.78;5036239;28;20024;-29
2021/09/24 00:26:38;;;;;;;2.67;1.83;;;;;;;27.39;33.96;96905.78;5037878;28;20031;-28
2021/09/24 00:29:04;;;;;;;3.25;1.83;;;;;;;27.39;34.05;96903.16;5035448;28;20150;-28
2021/09/24 00:31:29;;;;;;;2.65;1.85;;;;;;;27.39;34.09;96905.78;5041233;28;20163;-26
2021/09/24 00:33:55;;;;;;;2.33;1.88;;;;;;;27.38;34.03;96898.81;5038160;28;20446;-30
2021/09/24 00:36:20;;;;;;;2.28;1.73;;;;;;;27.39;34.08;96889.16;5035343;28;20036;-28
2021/09/24 00:38:45;;;;;;;2.28;1.48;;;;;;;27.39;33.95;96889.16;5034953;28;20016;-27
2021/09/24 00:41:11;;;;;;;1.45;1.35;;;;;;;27.38;33.97;96888.31;5034320;28;20047;-29
2021/09/24 00:43:36;;;;;;;2.90;1.40;;;;;;;27.38;34.08;96888.31;5032597;28;20025;-27
2021/09/24 00:46:02;;;;;;;2.90;1.83;;;;;;;27.38;33.99;96888.31;5029934;28;20036;-27
2021/09/24 00:48:27;;;;;;;2.60;1.77;;;;;;;27.37;34.06;96878.72;5029210;28;20083;-30
2021/09/24 00:50:53;;;;;;;2.17;1.52;;;;;;;27.37;34.06;96886.63;5027429;28;20446;-29
2021/09/24 00:53:18;;;;;;;1.52;1.13;;;;;;;27.37;33.98;96881.34;5027413;28;20033;-29
2021/09/24 00:55:44;;;;;;;2.92;1.75;;;;;;;27.37;34.06;96878.72;5028984;28;20561;-30
2021/09/24 00:58:10;;;;;;;2.63;1.48;;;;;;;27.37;34.00;96876.09;5034367;28;20461;-29
2021/09/24 01:00:35;;;;;;;3.83;1.70;;;;;;;27.37;33.95;96876.09;5026695;28;20037;-26
2021/09/24 01:03:00;;;;;;;4.50;1.90;;;;;;;27.37;33.98;96875.22;5027540;28;20025;-28
2021/09/24 01:05:26;;;;;;;2.17;1.27;;;;;;;27.36;34.04;96869.13;5028921;28;20026;-29
2021/09/24 01:07:52;;;;;;;3.03;1.60;;;;;;;27.36;33.99;96874.41;5008531;28;20036;-29
2021/09/24 01:10:17;;;;;;;3.92;1.80;;;;;;;27.36;33.92;96882.28;5026055;28;20041;-28
2021/09/24 01:12:43;;;;;;;2.83;1.63;;;;;;;27.37;34.03;96881.34;5015748;28;20028;-30
2021/09/24 01:15:13;;;;;;;2.58;1.52;;;;;;;27.36;33.90;96873.53;5029096;28;20021;-28
2021/09/24 01:17:39;;;;;;;1.40;1.30;;;;;;;27.37;34.01;96885.75;5025640;28;20024;-27
2021/09/24 01:20:05;;;;;;;2.83;1.65;;;;;;;27.36;33.93;96890.19;5027823;28;20502;-29
2021/09/24 01:22:31;;;;;;;2.50;1.65;;;;;;;27.36;34.04;96889.31;5027917;28;20021;-28
2021/09/24 01:24:56;;;;;;;3.38;1.50;;;;;;;27.36;33.96;96889.31;5031664;28;20953;-29
2021/09/24 01:27:21;;;;;;;2.10;1.38;;;;;;;27.36;33.96;96884.94;5027938;28;20037;-29
2021/09/24 01:29:51;;;;;;;1.83;1.50;;;;;;;27.36;34.00;96884.94;5028380;28;20653;-30
2021/09/24 01:32:17;;;;;;;2.72;1.48;;;;;;;27.36;34.01;96884.94;5025592;28;20517;-29
2021/09/24 01:34:42;;;;;;;1.92;1.40;;;;;;;27.35;34.00;96880.56;5029254;28;20110;-32
2021/09/24 01:37:07;;;;;;;2.25;1.42;;;;;;;27.35;34.05;96883.22;5028337;28;20833;-27
2021/09/24 01:39:33;;;;;;;2.38;1.63;;;;;;;27.35;33.96;96877.94;5026101;28;20398;-27
2021/09/24 01:41:58;;;;;;;1.98;1.42;;;;;;;27.35;34.05;96872.69;5026909;28;20029;-29
2021/09/24 01:44:24;;;;;;;2.55;1.50;;;;;;;27.35;33.99;96877.94;5028328;28;20143;-27
2021/09/24 01:46:49;;;;;;;2.08;1.23;;;;;;;27.34;34.07;96876.25;5026666;28;21095;-31
2021/09/24 01:49:14;;;;;;;3.40;1.30;;;;;;;27.33;33.97;96873.72;5026194;28;20466;-29
2021/09/24 01:51:43;;;;;;;2.40;1.50;;;;;;;27.35;33.90;96882.38;5028119;28;20037;-29
2021/09/24 01:54:08;;;;;;;1.13;1.02;;;;;;;27.34;34.04;96889.41;5024029;28;20491;-29
2021/09/24 01:56:33;;;;;;;1.63;1.13;;;;;;;27.33;33.97;96890.34;5029392;28;20035;-27
2021/09/24 01:58:59;;;;;;;2.33;1.52;;;;;;;27.33;34.09;96890.34;5025675;28;20026;-27
2021/09/24 02:01:24;;;;;;;2.40;1.30;;;;;;;27.34;33.97;96886.78;5025584;28;20124;-29
2021/09/24 02:03:50;;;;;;;1.67;1.20;;;;;;;27.34;34.02;96892.03;5026941;28;20079;-30
2021/09/24 02:06:15;;;;;;;2.05;1.38;;;;;;;27.33;34.21;96885.09;5027228;28;20039;-28
2021/09/24 02:08:41;;;;;;;2.13;1.23;;;;;;;27.33;33.87;96887.72;5027259;28;20475;-29
2021/09/24 02:11:10;;;;;;;1.88;1.10;;;;;;;27.33;34.23;96884.22;5029636;28;20031;-30
2021/09/24 02:13:36;;;;;;;2.30;1.33;;;;;;;27.33;33.95;96879.84;5011067;28;20020;-30
2021/09/24 02:16:01;;;;;;;1.52;1.20;;;;;;;27.32;34.00;96883.41;5025422;28;20040;-29
2021/09/24 02:18:27;;;;;;;2.08;1.40;;;;;;;27.32;34.03;96878.16;5026122;28;20025;-30
2021/09/24 02:20:52;;;;;;;2.42;1.17;;;;;;;27.32;33.97;96883.41;5019860;28;20316;-30
2021/09/24 02:23:18;;;;;;;1.92;1.42;;;;;;;27.32;34.01;96872.88;5027644;28;20033;-28
2021/09/24 02:25:43;;;;;;;1.73;1.30;;;;;;;27.31;34.08;96881.69;5026053;28;20024;-30
2021/09/24 02:28:08;;;;;;;1.80;1.38;;;;;;;27.30;33.93;96882.63;5024981;28;20443;-29
2021/09/24 02:30:34;;;;;;;2.53;1.33;;;;;;;27.32;34.01;96882.53;5028845;28;20506;-28
2021/09/24 02:32:59;;;;;;;1.75;1.02;;;;;;;27.31;33.94;96876.44;5027049;28;20614;-30
2021/09/24 02:35:25;;;;;;;1.58;1.13;;;;;;;27.31;33.99;96881.69;5026099;28;20041;-30
2021/09/24 02:37:50;;;;;;;1.65;1.08;;;;;;;27.31;33.86;96880.84;5025417;28;20065;-29
2021/09/24 02:40:16;;;;;;;2.15;1.20;;;;;;;27.29;33.98;96878.31;5027520;28;20098;-31
2021/09/24 02:42:42;;;;;;;1.52;1.13;;;;;;;27.30;33.92;96877.38;5028606;28;20532;-29
2021/09/24 02:45:07;;;;;;;1.98;1.23;;;;;;;27.30;34.00;96877.38;5031258;28;20031;-28
2021/09/24 02:47:33;;;;;;;2.08;1.27;;;;;;;27.29;33.94;96867.78;5030900;28;20058;-28
2021/09/24 02:49:58;;;;;;;1.80;1.10;;;;;;;27.30;33.97;96863.38;5033284;28;20546;-32
2021/09/24 02:52:24;;;;;;;1.65;1.30;;;;;;;27.29;33.92;96865.16;5032162;28;20032;-29
2021/09/24 02:54:49;;;;;;;1.75;1.10;;;;;;;27.30;33.82;96863.38;5030693;28;20498;-29
2021/09/24 02:57:14;;;;;;;3.15;1.40;;;;;;;27.29;34.05;96862.53;5030969;28;20635;-31
2021/09/24 02:59:40;;;;;;;2.88;2.20;;;;;;;27.28;33.82;96860.84;5032293;28;20485;-27
2021/09/24 03:02:05;;;;;;;3.33;1.75;;;;;;;27.27;33.72;96864.41;5028942;28;20142;-29
2021/09/24 03:04:31;;;;;;;2.83;1.60;;;;;;;27.27;34.25;96867.03;5032863;28;20029;-28
2021/09/24 03:06:56;;;;;;;2.17;1.50;;;;;;;27.26;33.72;96863.56;5035870;28;20091;-27
2021/09/24 03:09:21;;;;;;;1.98;1.40;;;;;;;27.26;33.80;96862.69;5038863;28;20024;-30
2021/09/24 03:11:47;;;;;;;2.25;1.60;;;;;;;27.26;33.81;96863.56;5034013;28;20435;-29
2021/09/24 03:14:12;;;;;;;3.67;1.38;;;;;;;27.26;33.89;96867.97;5035550;28;20052;-28
2021/09/24 03:16:38;;;;;;;1.50;1.35;;;;;;;27.27;33.86;96861.78;5030981;28;20033;-29
2021/09/24 03:19:06;;;;;;;1.58;1.27;;;;;;;27.25;33.92;96856.59;5033967;28;20029;-28
2021/09/24 03:21:31;;;;;;;2.00;1.58;;;;;;;27.26;34.08;96863.56;5026890;28;20487;-28
2021/09/24 03:23:57;;;;;;;1.48;1.38;;;;;;;27.26;33.89;96867.97;5033776;28;20025;-31
2021/09/24 03:26:22;;;;;;;1.38;1.05;;;;;;;27.25;33.97;96861.88;5034334;28;20025;-28
2021/09/24 03:28:47;;;;;;;1.70;1.33;;;;;;;27.26;33.90;96866.19;5029729;28;20098;-28
2021/09/24 03:31:14;;;;;;;1.75;1.20;;;;;;;27.25;33.92;96855.75;5026114;28;20052;-27
2021/09/24 03:33:39;;;;;;;3.13;1.20;;;;;;;27.26;34.03;96867.97;5034567;28;20060;-28
2021/09/24 03:36:05;;;;;;;1.52;1.00;;;;;;;27.25;34.00;96858.38;5032345;28;20487;-32
2021/09/24 03:38:30;;;;;;;1.65;1.35;;;;;;;27.26;33.95;96857.44;5033941;28;20029;-30
2021/09/24 03:40:56;;;;;;;2.17;1.42;;;;;;;27.25;33.97;96861.00;5033993;28;20098;-33
2021/09/24 03:43:21;;;;;;;1.17;0.95;;;;;;;27.25;34.04;96858.38;5030626;28;20060;-29
2021/09/24 03:45:46;;;;;;;1.27;1.17;;;;;;;27.24;33.95;96860.16;5035504;28;20028;-27
2021/09/24 03:48:12;;;;;;;1.30;1.10;;;;;;;27.24;33.97;96857.53;5033310;28;21901;-27
2021/09/24 03:50:37;;;;;;;2.88;1.13;;;;;;;27.25;33.95;96859.22;5033873;28;20026;-30
2021/09/24 03:53:03;;;;;;;1.58;0.98;;;;;;;27.24;33.96;96861.94;5036726;28;20040;-30
2021/09/24 03:55:28;;;;;;;1.60;1.30;;;;;;;27.25;33.94;96855.75;5033819;28;20941;-29
2021/09/24 03:57:54;;;;;;;2.17;1.20;;;;;;;27.24;33.86;96859.31;5036559;28;20032;-28
2021/09/24 04:00:19;;;;;;;1.95;1.50;;;;;;;27.24;33.91;96859.31;5035586;28;20033;-30
2021/09/24 04:02:44;;;;;;;1.23;1.10;;;;;;;27.24;33.97;96851.44;5036284;28;20407;-32
2021/09/24 04:05:10;;;;;;;1.58;1.17;;;;;;;27.24;33.98;96848.78;5033911;28;20036;-29
2021/09/24 04:07:35;;;;;;;1.33;1.20;;;;;;;27.23;33.98;96849.75;5031122;28;20692;-28
2021/09/24 04:10:01;;;;;;;1.50;1.40;;;;;;;27.24;33.83;96854.06;5030984;28;20040;-29
2021/09/24 04:12:26;;;;;;;1.13;1.02;;;;;;;27.23;33.88;96852.38;5030902;28;20021;-30
2021/09/24 04:14:52;;;;;;;0.98;0.88;;;;;;;27.20;33.94;96847.28;5028851;28;20036;-29
2021/09/24 04:17:20;;;;;;;1.58;1.17;;;;;;;27.22;33.90;96850.66;5028057;28;20032;-30
2021/09/24 04:19:45;;;;;;;1.70;1.27;;;;;;;27.22;33.88;96859.41;5029966;28;20021;-30
2021/09/24 04:22:11;;;;;;;2.13;1.23;;;;;;;27.22;34.00;96856.78;5027413;28;20044;-30
2021/09/24 04:24:36;;;;;;;1.77;1.25;;;;;;;27.22;33.92;96845.38;5029861;28;20024;-30
2021/09/24 04:27:02;;;;;;;1.83;1.10;;;;;;;27.22;34.01;96848.88;5027652;28;20112;-27
2021/09/24 04:29:27;;;;;;;1.80;1.20;;;;;;;27.23;33.88;96849.75;5027649;28;20033;-27
2021/09/24 04:31:53;;;;;;;1.58;1.25;;;;;;;27.21;33.97;96846.34;5027827;28;20029;-27
2021/09/24 04:34:18;;;;;;;1.52;1.10;;;;;;;27.21;33.84;96855.09;5027505;28;20221;-29
2021/09/24 04:36:43;;;;;;;2.10;1.33;;;;;;;27.20;33.95;96847.28;5027855;28;20044;-30
2021/09/24 04:39:09;;;;;;;2.70;1.10;;;;;;;27.21;33.86;96860.34;5029895;28;20033;-28
2021/09/24 04:41:34;;;;;;;1.13;1.08;;;;;;;27.21;33.84;96854.22;5027181;28;20493;-28
2021/09/24 04:44:00;;;;;;;1.83;1.23;;;;;;;27.21;33.84;96854.22;5031560;28;20949;-27
2021/09/24 04:46:25;;;;;;;1.48;1.10;;;;;;;27.21;33.93;96855.09;5028285;28;20034;-30
2021/09/24 04:48:50;;;;;;;2.15;1.25;;;;;;;27.21;33.99;96851.59;5029030;28;20032;-29
2021/09/24 04:51:16;;;;;;;1.67;1.40;;;;;;;27.20;33.91;96850.78;5027466;28;20033;-30
2021/09/24 04:53:41;;;;;;;1.77;1.02;;;;;;;27.21;33.86;96848.97;5029713;28;20025;-30
2021/09/24 04:56:07;;;;;;;1.65;1.02;;;;;;;27.20;33.87;96857.81;5028433;28;20029;-28
2021/09/24 04:58:32;;;;;;;2.58;1.33;;;;;;;27.21;33.90;96854.22;5028860;28;20025;-30
2021/09/24 05:00:57;;;;;;;1.45;1.17;;;;;;;27.20;33.87;96852.53;5028541;28;20036;-31
2021/09/24 05:03:23;;;;;;;1.42;1.10;;;;;;;27.20;33.91;96860.44;5029446;28;20037;-28
2021/09/24 05:05:48;;;;;;;2.13;1.13;;;;;;;27.19;34.01;96853.47;5027460;28;20605;-30
2021/09/24 05:08:14;;;;;;;1.60;1.20;;;;;;;27.18;33.82;96852.63;5028574;28;20924;-30
2021/09/24 05:10:39;;;;;;;1.95;1.10;;;;;;;27.19;33.85;96861.38;5026906;28;20028;-26
2021/09/24 05:13:05;;;;;;;2.17;1.30;;;;;;;27.18;33.88;96860.50;5025901;28;20061;-29
2021/09/24 05:15:30;;;;;;;3.28;1.13;;;;;;;27.18;33.88;96864.91;5028250;28;20033;-31
2021/09/24 05:17:56;;;;;;;2.45;1.30;;;;;;;27.18;33.86;96862.28;5028864;28;20059;-29
2021/09/24 05:20:21;;;;;;;1.17;1.08;;;;;;;27.17;33.96;96863.22;5025701;28;20032;-28
2021/09/24 05:22:47;;;;;;;1.75;0.95;;;;;;;27.18;34.00;96864.91;5026142;28;20029;-30
2021/09/24 05:25:12;;;;;;;1.38;1.20;;;;;;;27.18;33.86;96857.03;5027134;28;20037;-29
2021/09/24 05:27:38;;;;;;;2.97;1.10;;;;;;;27.19;34.14;96869.28;5025158;28;20981;-28
2021/09/24 05:30:04;;;;;;;1.15;1.00;;;;;;;27.18;33.92;96864.91;5025241;28;20083;-29
2021/09/24 05:32:30;;;;;;;2.35;1.15;;;;;;;27.17;33.91;96864.09;5027450;28;20466;-28
2021/09/24 05:34:55;;;;;;;1.23;0.90;;;;;;;27.17;33.85;96861.47;5028315;28;20026;-29
2021/09/24 05:37:20;;;;;;;1.20;0.93;;;;;;;27.18;33.96;96862.28;5028426;28;20412;-29
2021/09/24 05:39:46;;;;;;;0.98;0.88;;;;;;;27.17;33.90;96857.97;5027136;28;20025;-29
2021/09/24 05:42:11;;;;;;;1.90;1.00;;;;;;;27.17;33.96;96863.22;5026181;28;20437;-27
2021/09/24 05:44:37;;;;;;;1.25;1.08;;;;;;;27.17;33.90;96865.88;5028927;28;20044;-30
2021/09/24 05:47:02;;;;;;;1.30;1.02;;;;;;;27.18;33.97;96867.53;5026300;28;20028;-27
2021/09/24 05:49:30;;;;;;;1.00;0.93;;;;;;;27.15;33.88;96865.13;5026882;28;20037;-29
2021/09/24 05:51:56;;;;;;;1.65;1.30;;;;;;;27.16;33.84;96861.53;5025842;28;20021;-28
2021/09/24 05:54:22;;;;;;;1.55;1.00;;;;;;;27.16;33.88;96864.19;5027526;28;20691;-28
2021/09/24 05:56:47;;;;;;;2.55;1.05;;;;;;;27.14;33.92;96856.38;5027297;28;20033;-29
2021/09/24 05:59:13;;;;;;;1.00;0.90;;;;;;;27.16;33.91;96864.19;5027861;28;20029;-29
2021/09/24 06:01:38;;;;;;;2.90;1.10;;;;;;;27.16;33.82;96869.44;5028643;28;20433;-30
2021/09/24 06:04:04;;;;;;;3.35;1.40;;;;;;;27.16;34.01;96866.81;5029066;28;20179;-29
2021/09/24 06:06:29;;;;;;;1.98;1.38;;;;;;;27.16;34.00;96883.44;5026441;28;20032;-31
2021/09/24 06:08:54;;;;;;;4.30;1.40;;;;;;;27.16;33.92;96869.44;5027266;28;20383;-27
2021/09/24 06:11:20;;;;;;;10.77;2.05;;;;;;;27.16;33.82;96872.06;5027078;28;20060;-29
2021/09/24 06:13:45;;;;;;;11.90;2.08;;;;;;;27.15;33.82;96875.63;5026658;28;20029;-29
2021/09/24 06:16:11;;;;;;;10.43;2.58;;;;;;;27.15;33.88;96876.47;5032465;28;20025;-28
2021/09/24 06:18:36;;;;;;;13.52;2.60;;;;;;;27.15;33.83;96870.38;5030529;28;20512;-29
2021/09/24 06:21:02;;;;;;;5.80;2.10;;;;;;;27.15;33.89;96873.00;5028483;28;20118;-27
2021/09/24 06:23:28;;;;;;;27.42;2.58;;;;;;;27.16;33.80;96874.69;5031439;28;20035;-29
2021/09/24 06:25:54;;;;;;;5.30;2.45;;;;;;;27.15;33.83;96881.72;5033770;28;20032;-28
2021/09/24 06:28:20;;;;;;;10.48;2.78;;;;;;;27.16;34.05;96877.31;5026456;28;20071;-28
2021/09/24 06:30:45;;;;;;;10.52;3.72;;;;;;;27.17;33.93;96881.66;5025537;28;20044;-32
2021/09/24 06:33:10;;;;;;;12.07;3.55;;;;;;;27.18;33.89;96878.06;5029166;28;20581;-26
2021/09/24 06:35:36;;;;;;;25.98;3.67;;;;;;;27.18;33.96;96880.69;5033232;28;20029;-30
2021/09/24 06:38:01;;;;;;;25.38;5.20;;;;;;;27.18;33.52;96881.56;5035187;28;20151;-29
2021/09/24 06:40:27;;;;;;;24.10;5.03;;;;;;;27.17;32.70;96884.28;5032576;28;20110;-29
2021/09/24 06:42:54;;;;;;;31.35;5.30;;;;;;;27.16;32.43;96882.59;5034006;28;20025;-29
2021/09/24 06:45:20;;;;;;;18.00;5.22;;;;;;;27.13;32.29;96883.63;5034093;28;20060;-28
2021/09/24 06:47:45;;;;;;;19.33;5.00;;;;;;;27.10;32.40;96884.63;5015111;28;20032;-29
2021/09/24 06:50:11;;;;;;;21.00;5.13;;;;;;;27.10;32.26;96897.78;5029937;28;20036;-28
2021/09/24 06:52:36;;;;;;;23.05;4.72;;;;;;;27.10;32.17;96889.91;5033273;28;20029;-28
2021/09/24 06:55:02;;;;;;;17.77;4.70;;;;;;;27.07;32.19;96890.06;5029117;28;20549;-30
2021/09/24 06:57:28;;;;;;;20.27;4.68;;;;;;;27.07;32.36;96900.59;5032018;28;20112;-28
2021/09/24 06:59:53;;;;;;;20.20;4.32;;;;;;;27.07;32.21;96890.06;5008780;28;20033;-28
2021/09/24 07:02:18;;;;;;;19.98;4.45;;;;;;;27.03;32.26;96891.19;5029007;28;20025;-28
2021/09/24 07:04:44;;;;;;;16.05;4.28;;;;;;;27.06;32.32;96898.91;5031262;28;20037;-29
2021/09/24 07:07:09;;;;;;;16.10;4.45;;;;;;;27.06;32.30;96904.16;5029633;28;20612;-27
2021/09/24 07:09:35;;;;;;;12.18;4.28;;;;;;;27.06;32.54;96898.91;5025450;28;20047;-31
2021/09/24 07:12:01;;;;;;;15.43;4.50;;;;;;;27.05;32.53;96899.84;5033382;28;20531;-29
2021/09/24 07:14:26;;;;;;;12.63;4.10;;;;;;;27.04;32.59;96900.75;5032809;28;20338;-32
2021/09/24 07:16:52;;;;;;;13.38;4.88;;;;;;;27.05;32.54;96902.47;5028098;28;20125;-30
2021/09/24 07:19:17;;;;;;;14.80;5.68;;;;;;;27.05;32.53;96894.59;5024577;28;20148;-29
2021/09/24 07:21:43;;;;;;;11.32;4.53;;;;;;;27.05;32.53;96897.22;5033315;28;20037;-29
2021/09/24 07:24:09;;;;;;;9.68;3.88;;;;;;;27.04;32.62;96890.22;5030125;28;20040;-28
2021/09/24 07:26:34;;;;;;;6.15;3.65;;;;;;;27.04;32.59;96890.22;5030928;28;20419;-30
2021/09/24 07:28:59;;;;;;;9.60;3.92;;;;;;;27.04;32.57;96889.41;5039421;28;20399;-28
2021/09/24 07:31:25;;;;;;;10.38;3.97;;;;;;;27.04;32.65;96894.66;5034422;28;20021;-31
2021/09/24 07:33:50;;;;;;;11.48;3.88;;;;;;;27.03;32.71;96888.53;5029123;28;20556;-28
2021/09/24 07:36:16;;;;;;;5.60;3.80;;;;;;;27.04;32.75;96894.66;5036320;28;20054;-29
2021/09/24 07:38:45;;;;;;;7.63;3.58;;;;;;;27.04;32.79;96892.88;5036673;28;20066;-26
2021/09/24 07:41:11;;;;;;;7.80;3.47;;;;;;;27.04;32.86;96889.41;5034775;28;20087;-29
2021/09/24 07:43:36;;;;;;;6.00;3.90;;;;;;;27.04;32.98;96895.50;5033547;28;20036;-28
2021/09/24 07:46:02;;;;;;;6.85;3.83;;;;;;;27.05;32.99;96897.22;5025649;28;20498;-28
2021/09/24 07:48:27;;;;;;;8.15;3.33;;;;;;;27.07;32.99;96900.59;5035558;28;20492;-29
2021/09/24 07:50:52;;;;;;;6.57;3.53;;;;;;;27.08;33.09;96897.00;5035005;28;20036;-29
2021/09/24 07:53:18;;;;;;;6.18;4.00;;;;;;;27.07;33.09;96900.59;5031907;28;20161;-30
2021/09/24 07:55:43;;;;;;;9.65;4.30;;;;;;;27.05;32.91;96907.72;5028840;28;20325;-28
2021/09/24 07:58:09;;;;;;;8.18;4.80;;;;;;;27.02;32.70;96904.41;5030330;28;20029;-29
2021/09/24 08:00:36;;;;;;;8.23;5.13;;;;;;;26.98;32.56;96901.97;5031574;28;20052;-29
2021/09/24 08:03:04;;;;;;;6.55;4.93;;;;;;;26.94;32.55;96910.97;5035743;28;20527;-28
2021/09/24 08:05:30;;;;;;;8.20;5.10;;;;;;;26.91;32.55;96912.88;5035798;28;20128;-30
2021/09/24 08:07:56;;;;;;;8.95;5.05;;;;;;;26.87;32.56;96909.56;5034764;28;20024;-29
2021/09/24 08:10:21;;;;;;;8.02;4.90;;;;;;;26.83;32.72;96903.66;5034646;28;20198;-29
2021/09/24 08:12:47;;;;;;;6.40;5.18;;;;;;;26.80;32.94;96914.31;5036394;28;20141;-30
2021/09/24 08:15:12;;;;;;;7.53;4.85;;;;;;;26.78;33.08;96913.56;5037694;28;20029;-29
2021/09/24 08:17:39;;;;;;;7.90;4.40;;;;;;;26.76;33.06;96912.78;5036497;28;20024;-29
2021/09/24 08:20:05;;;;;;;4.80;4.15;;;;;;;26.75;33.11;96919.00;5033468;28;20741;-29
2021/09/24 08:22:32;;;;;;;6.32;4.40;;;;;;;26.77;33.10;96919.75;5030053;28;20041;-28
2021/09/24 08:24:57;;;;;;;6.75;4.20;;;;;;;26.76;33.08;96912.78;5033917;28;20033;-31
2021/09/24 08:27:23;;;;;;;14.10;3.75;;;;;;;26.79;33.07;96911.78;5034113;28;20037;-27
2021/09/24 08:29:48;;;;;;;6.38;3.83;;;;;;;26.81;33.13;96913.38;5033153;28;20033;-30
2021/09/24 08:32:14;;;;;;;7.07;3.53;;;;;;;26.83;33.27;96910.66;5029203;28;20040;-31
2021/09/24 08:34:39;;;;;;;4.97;3.63;;;;;;;26.83;33.33;96906.28;5031630;28;20487;-27
2021/09/24 08:37:05;;;;;;;9.23;4.22;;;;;;;26.85;33.27;96907.03;5031743;28;20602;-27
2021/09/24 08:39:30;;;;;;;7.53;3.65;;;;;;;26.87;33.50;96910.44;5036914;28;20025;-30
2021/09/24 08:41:56;;;;;;;13.15;3.40;;;;;;;26.88;33.44;96904.22;5035121;28;20056;-26
2021/09/24 08:44:23;;;;;;;9.00;4.00;;;;;;;26.91;33.56;96899.72;5035141;28;20029;-30
2021/09/24 08:46:48;;;;;;;8.70;4.03;;;;;;;26.93;33.54;96903.13;5032994;28;20496;-29
2021/09/24 08:49:14;;;;;;;9.73;4.13;;;;;;;26.94;33.51;96905.72;5034560;28;20059;-29
2021/09/24 08:51:40;;;;;;;10.50;4.60;;;;;;;26.96;33.51;96909.09;5034428;28;20033;-30
2021/09/24 08:54:05;;;;;;;12.55;4.60;;;;;;;26.98;33.52;96911.63;5034447;28;20104;-30
2021/09/24 08:56:31;;;;;;;23.13;4.75;;;;;;;26.99;33.51;96918.59;5035064;28;20515;-27
2021/09/24 08:58:56;;;;;;;7.63;4.50;;;;;;;27.03;33.55;96911.38;5036318;28;20028;-29
2021/09/24 09:01:21;;;;;;;15.05;5.30;;;;;;;27.03;33.55;96917.47;5036527;28;20039;-29
2021/09/24 09:03:47;;;;;;;9.13;4.75;;;;;;;27.04;33.67;96911.28;5035362;28;20045;-28
2021/09/24 09:06:17;;;;;;;11.40;4.25;;;;;;;27.05;33.55;96907.72;5034063;28;20111;-29
2021/09/24 09:08:43;;;;;;;7.50;4.70;;;;;;;27.06;33.61;96912.06;5035742;28;20033;-28
2021/09/24 09:11:19;;;;;;;11.63;4.88;;;;;;;27.07;33.62;96911.09;5040029;28;20494;-28
2021/09/24 09:13:55;;;;;;;7.70;4.30;;;;;;;27.09;33.69;96906.63;5032794;28;20028;-29
2021/09/24 09:16:25;;;;;;;7.00;4.50;;;;;;;27.10;33.67;96910.94;5034736;28;20021;-28
2021/09/24 09:19:04;;;;;;;9.27;4.43;;;;;;;27.11;33.67;96915.25;5034227;28;20036;-28
2021/09/24 09:21:29;;;;;;;8.00;4.55;;;;;;;27.12;33.70;96911.69;5037121;28;20040;-29
2021/09/24 09:23:55;;;;;;;8.43;4.43;;;;;;;27.13;33.82;96905.53;5035233;28;20033;-32
2021/09/24 09:26:21;;;;;;;7.45;4.68;;;;;;;27.16;33.79;96908.91;5031903;28;20021;-27
2021/09/24 09:28:49;;;;;;;9.13;4.55;;;;;;;27.16;33.77;96908.91;5033675;28;20055;-29
2021/09/24 09:31:20;;;;;;;10.27;4.07;;;;;;;27.18;33.81;96907.00;5032985;28;20028;-31
2021/09/24 09:33:46;;;;;;;5.38;4.00;;;;;;;27.18;33.73;96901.75;5033550;28;20629;-27
2021/09/24 09:36:12;;;;;;;8.00;4.00;;;;;;;27.19;33.74;96908.72;5033045;28;20028;-29
2021/09/24 09:38:39;;;;;;;7.30;4.10;;;;;;;27.19;33.77;96912.19;5033244;28;20090;-29
2021/09/24 09:41:05;;;;;;;4.88;3.42;;;;;;;27.20;33.95;96915.69;5032152;28;20562;-31
2021/09/24 09:43:34;;;;;;;5.70;3.50;;;;;;;27.20;33.78;96911.28;5028790;28;20032;-28
2021/09/24 09:46:10;;;;;;;6.55;3.90;;;;;;;27.22;33.96;96913.78;5030149;28;20052;-28
2021/09/24 09:48:36;;;;;;;7.30;4.05;;;;;;;27.22;33.76;96904.13;5035113;28;20570;-29
2021/09/24 09:51:01;;;;;;;6.28;3.45;;;;;;;27.23;33.79;96902.34;5031565;28;20028;-30
2021/09/24 09:53:27;;;;;;;7.82;3.85;;;;;;;27.23;33.86;96899.72;5019580;28;20029;-29
2021/09/24 09:55:53;;;;;;;8.13;3.53;;;;;;;27.23;33.94;96899.72;5027044;28;20079;-28
2021/09/24 09:58:20;;;;;;;5.45;3.40;;;;;;;27.25;33.94;96895.22;5026597;28;20122;-29
2021/09/24 10:00:59;;;;;;;5.93;3.17;;;;;;;27.24;33.94;96898.78;5025097;28;20040;-28
2021/09/24 10:03:29;;;;;;;4.93;3.40;;;;;;;27.25;33.92;96896.06;5023978;28;20032;-29
2021/09/24 10:05:54;;;;;;;6.15;3.65;;;;;;;27.27;33.94;96898.63;5026431;28;20037;-28
2021/09/24 10:08:33;;;;;;;6.95;3.20;;;;;;;27.26;34.00;96895.13;5025140;28;20940;-29
2021/09/24 10:10:58;;;;;;;7.00;3.60;;;;;;;27.28;34.01;96902.94;5026389;28;20025;-29
2021/09/24 10:13:28;;;;;;;7.57;3.60;;;;;;;27.28;34.01;96889.78;5026028;28;20389;-29
2021/09/24 10:15:53;;;;;;;5.95;3.65;;;;;;;27.29;34.06;96893.25;5028666;28;20170;-28
2021/09/24 10:18:19;;;;;;;8.82;3.55;;;;;;;27.30;34.03;96893.16;5030358;28;20033;-28
2021/09/24 10:20:45;;;;;;;4.85;3.38;;;;;;;27.30;34.05;96893.16;5032635;28;20033;-29
2021/09/24 10:23:10;;;;;;;5.60;3.20;;;;;;;27.30;34.17;96893.16;5026799;28;20048;-27
2021/09/24 10:25:36;;;;;;;6.60;3.38;;;;;;;27.30;34.16;96885.25;5025521;28;20040;-29
2021/09/24 10:28:05;;;;;;;8.18;3.38;;;;;;;27.31;34.05;96888.75;5007338;28;20477;-28
2021/09/24 10:30:31;;;;;;;7.65;3.40;;;;;;;27.31;34.12;96879.06;5019933;28;20040;-28
2021/09/24 10:33:05;;;;;;;9.02;3.22;;;;;;;27.32;34.12;96880.78;5025197;28;20068;-27
2021/09/24 10:35:50;;;;;;;6.13;3.53;;;;;;;27.33;34.31;96878.97;5024604;28;20029;-29
2021/09/24 10:38:17;;;;;;;5.75;3.50;;;;;;;27.34;34.24;96881.53;5017453;28;20632;-29
2021/09/24 10:41:13;;;;;;;5.95;3.25;;;;;;;27.35;34.54;96877.94;5020247;28;20448;-27
2021/09/24 10:43:43;;;;;;;8.32;3.58;;;;;;;27.36;34.49;96879.66;5004102;28;20032;-28
2021/09/24 10:46:24;;;;;;;6.45;3.30;;;;;;;27.36;34.65;96874.41;5025571;28;20136;-28
2021/09/24 10:49:16;;;;;;;6.43;3.28;;;;;;;27.37;34.63;96878.72;5027663;28;20033;-29
2021/09/24 10:51:57;;;;;;;10.25;3.17;;;;;;;27.38;34.81;96872.50;5025925;28;20368;-29
2021/09/24 10:54:23;;;;;;;7.30;3.53;;;;;;;27.39;35.04;96865.47;5032542;28;20136;-30
2021/09/24 10:57:02;;;;;;;5.97;3.63;;;;;;;27.41;35.35;96875.91;5022718;28;20025;-28
2021/09/24 10:59:33;;;;;;;7.20;3.55;;;;;;;27.42;35.55;96869.72;5025329;28;20026;-30
2021/09/24 11:01:59;;;;;;;5.32;3.42;;;;;;;27.41;35.38;96863.59;5024350;28;20148;-28
2021/09/24 11:04:40;;;;;;;7.43;3.67;;;;;;;27.43;35.60;96859.09;5013137;28;20037;-30
2021/09/24 11:07:06;;;;;;;;;;;;;;;27.43;35.91;96851.19;5026668;28;20041;-27
2021/09/24 11:09:31;;;;;;;8.68;3.13;;;;;;;27.47;35.71;96859.75;5028020;28;20260;-28
2021/09/24 11:12:04;;;;;;;8.23;2.95;;;;;;;27.46;35.77;96858.06;5028670;28;20036;-29
2021/09/24 11:14:30;;;;;;;9.02;3.10;;;;;;;27.47;35.91;96859.75;5033855;28;20040;-26
2021/09/24 11:16:56;;;;;;;7.70;3.30;;;;;;;27.46;35.76;96847.53;5035624;28;20157;-28
2021/09/24 11:19:44;;;;;;;5.70;3.20;;;;;;;27.47;35.88;96854.50;5033785;28;20037;-29
2021/09/24 11:22:19;;;;;;;7.25;3.53;;;;;;;27.49;35.85;96847.34;5030327;28;20064;-28
2021/09/24 11:24:46;;;;;;;4.90;3.00;;;;;;;27.49;35.74;96842.06;5031212;28;20032;-29
2021/09/24 11:27:14;;;;;;;6.05;3.42;;;;;;;27.49;35.76;96842.06;5026701;28;21153;-29
2021/09/24 11:29:41;;;;;;;6.40;3.28;;;;;;;27.49;35.59;96842.06;5027659;28;20036;-27